Tiempo atmosférico en la estación meteorológica de Sariñena, Depósito Agua, Huesca (302 m.)



Fecha
DESCASC
Temp. máxima en grados centígrados (hora)
DESCASC
Temp. mínima en grados centígrados (hora)
DESCASC
Temp. media en grados centígrados
DESCASC
Racha de viento máxima en m/sg (hora)
DESCASC
Velocidad máxima media en intervalos de 10 minutos(hora)
DESCASC
Precipitaciones diarias en mm
DESCASC
Precipitaciones de 00:00 a 06:00 en mm
DESCASC
Precipitaciones de 06:00 a 12:00 en mm
DESCASC
Precipitaciones de 12:00 a 18:00 en mm
DESCASC
Precipitaciones de 18:00 a 24:00 en mm
DESCASC
10-11-2019 9.4 (12:50) 4.5 (00:00) 6.9 18.06 (15:20) 11.11 (14:30) 0 0 0 0 0
09-11-2019 13.6 (13:10) 6.8 (00:00) 10.2 16.11 (02:30) 9.44 (05:10) 1.8 0 0 0 1.8
08-11-2019 11.9 (13:30) 3.3 (00:00) 7.6 20.56 (15:30) 11.67 (15:50) 0.2 0 0 0.2 0
07-11-2019 13.3 (12:00) 5.2 (00:00) 9.3 12.78 (12:50) 7.78 (12:50) 0.4 0 0.2 0 0.2
06-11-2019 15.2 (14:50) 7.3 (00:00) 11.3 16.11 (12:00) 9.17 (11:50) 0 0 0 0 0
05-11-2019 15.5 (13:40) 7.7 (00:00) 11.6 13.33 (16:00) 8.06 (15:00) 0 0 0 0 0
04-11-2019 21.6 (14:50) 7.8 (00:00) 14.7 14.17 (13:10) 7.22 (13:40) 3.6 0 0 0 3.6
03-11-2019 17.3 (01:00) 8 (00:00) 12.6 20.28 (12:50) 12.5 (13:00) 0.8 0 0.8 0 0
02-11-2019 21.2 (14:00) 11.6 (00:00) 16.4 9.72 (13:10) 5.83 (13:10) 0.2 0 0 0 0.2
01-11-2019 23.2 (16:10) 11.5 (00:00) 17.4 8.06 (14:40) 4.72 (14:40) 0.8 0 0 0 0.8
31-10-2019 22 (13:50) 12.1 (04:00) 17.1 15.83 (13:00) 10.28 (13:00) 0 0 0 0 0
30-10-2019 17.8 (15:00) 10.8 (00:00) 14.3 4.17 (14:20) 2.22 (15:40) 0 0 0 0 0
29-10-2019 21.2 (16:20) 8.3 (00:00) 14.8 3.89 (16:40) 2.78 (16:40) 0 0 0 0 0
28-10-2019 18.9 (16:30) 10.6 (00:00) 14.8 3.61 (15:10) 2.22 (15:50) 0 0 0 0 0
27-10-2019 21.2 (15:40) 7.6 (00:00) 14.4 3.33 (14:00) 1.94 (15:30) 0 0 0 0 0
26-10-2019 21.4 (16:50) 6.6 (00:00) 14 4.72 (13:30) 2.78 (13:30) 0 0 0 0 0
25-10-2019 22.4 (17:00) 7.9 (00:00) 15.1 8.61 (00:20) 4.72 (00:20) 0 0 0 0 0
24-10-2019 17.7 (16:00) 7.6 (00:00) 12.7 11.94 (16:20) 7.22 (16:40) 0 0 0 0 0
23-10-2019 17.4 (16:40) 10 (00:00) 13.7 21.39 (02:50) 12.22 (02:50) 10.2 10.2 0 0 0
22-10-2019 10.6 (22:40) 8.5 (00:00) 9.6 9.44 (13:00) 5.56 (13:10) 25.6 0 0.8 20.6 4.2
21-10-2019 16.8 (15:30) 6.5 (00:00) 11.6 5.83 (01:00) 3.33 (01:00) 0 0 0 0 0
20-10-2019 18.8 (17:40) 10.3 (00:00) 14.5 8.61 (12:00) 4.44 (12:00) 1.2 1.2 0 0 0
19-10-2019 23.4 (14:50) 12.2 (00:00) 17.8 6.94 (17:30) 3.89 (17:30) 0 0 0 0 0
18-10-2019 21 (15:20) 10.8 (00:00) 15.9 3.61 (14:30) 2.22 (14:30) 0 0 0 0 0
17-10-2019 21.2 (17:40) 7.3 (00:00) 14.3 4.17 (12:00) 2.22 (07:20) 0 0 0 0 0
16-10-2019 22 (17:10) 8.1 (00:00) 15.1 5.28 (14:30) 2.22 (14:30) 0 0 0 0 0
15-10-2019 18.1 (16:30) 9.7 (00:00) 13.9 13.89 (11:10) 7.5 (13:20) 0 0 0 0 0
14-10-2019 21.8 (16:50) 13.5 (00:00) 17.6 14.17 (23:10) 7.22 (16:50) 15.2 0 0 0.8 14.4

Gráficas

Temp. máximas Temp. mínimas Temp. medias Precipitaciones Rachas de viento máximas Velocidades máximas media en intervalos de 10 minutos

Datos horarios

Fecha y hora oficial Temperatura (ºC) Velocidad del viento (km/h) Dirección del viento Racha (km/h) Dirección de racha Precipitación (mm) Presión (hPa) Tendencia (hPa) Humedad (%)
2019-11-12 23:00:00 9.4 10 Oeste 23 Sudoeste 0 -- -- 77
2019-11-12 22:00:00 9.6 13 Oeste 24 Sudoeste 0 -- -- 76
2019-11-12 21:00:00 8.7 12 Oeste 27 Oeste 0 -- -- 78
2019-11-12 20:00:00 10 15 Oeste 35 Oeste 0 -- -- 73
2019-11-12 19:00:00 10 17 Oeste 33 Oeste 0 -- -- 72
2019-11-12 18:00:00 10.6 22 Oeste 53 Oeste 0 -- -- 69
2019-11-12 17:00:00 12.1 29 Oeste 58 Oeste 0 -- -- 63
2019-11-12 16:00:00 12.9 37 Oeste 66 Oeste 0 -- -- 60
2019-11-12 15:00:00 13.2 34 Oeste 54 Oeste 0 -- -- 59
2019-11-12 14:00:00 13.1 33 Oeste 59 Oeste 0 -- -- 60
2019-11-12 13:00:00 12.8 28 Oeste 54 Oeste 0 -- -- 60
2019-11-12 12:00:00 12.1 32 Oeste 53 Noroeste 0 -- -- 62
2019-11-12 11:00:00 11.4 24 Oeste 57 Oeste 0 -- -- 66
2019-11-12 10:00:00 9.8 31 Oeste 55 Oeste 0 -- -- 73
2019-11-12 09:00:00 8 25 Oeste 42 Oeste 0 -- -- 80
2019-11-12 08:00:00 6.8 16 Oeste 29 Oeste 0 -- -- 83
2019-11-12 07:00:00 6.2 4 Noroeste 30 Oeste 0 -- -- 82
2019-11-12 06:00:00 5.9 9 Oeste 32 Oeste 0 -- -- 83
2019-11-12 05:00:00 6.4 21 Oeste 37 Oeste 0 -- -- 80
2019-11-12 04:00:00 6.6 22 Oeste 41 Oeste 0 -- -- 79
2019-11-12 03:00:00 6.7 20 Oeste 37 Oeste 0 -- -- 79
2019-11-12 02:00:00 7.2 18 Oeste 32 Oeste 0 -- -- 75
2019-11-12 01:00:00 6.9 13 Oeste 38 Oeste 0 -- -- 77
2019-11-12 00:00:00 7.4 13 Oeste 48 Oeste 0 -- -- 76
2019-11-11 23:00:00 7.8 27 Oeste 48 Oeste 0 -- -- 72
2019-11-11 22:00:00 8.3 25 Oeste 48 Noroeste 0 -- -- 69
2019-11-11 21:00:00 8.8 28 Oeste 46 Noroeste 0 -- -- 66
2019-11-11 20:00:00 9.4 29 Oeste 53 Oeste 0 -- -- 65
2019-11-11 19:00:00 9.9 29 Oeste 51 Oeste 0 -- -- 69
2019-11-11 18:00:00 10.2 24 Oeste 61 Oeste 0 -- -- 76
2019-11-11 17:00:00 10.1 29 Oeste 66 Oeste 0 -- -- 79
2019-11-11 16:00:00 10.4 33 Oeste 59 Oeste 0 -- -- 78
2019-11-11 15:00:00 10.9 25 Oeste 53 Oeste 0 -- -- 76
2019-11-11 14:00:00 11.6 29 Oeste 53 Oeste 0 -- -- 71
2019-11-11 13:00:00 11.9 23 Oeste 41 Noroeste 0 -- -- 66
2019-11-11 12:00:00 11.3 16 Oeste 30 Noroeste 0 -- -- 65
2019-11-11 11:00:00 9.6 11 Oeste 21 Oeste 0 -- -- 71
2019-11-11 10:00:00 8.1 12 Oeste 23 Noroeste 0 -- -- 78
2019-11-11 09:00:00 6.8 13 Oeste 25 Noroeste 0 -- -- 81
2019-11-11 08:00:00 5.7 8 Oeste 19 Oeste 0 -- -- 83
2019-11-11 07:00:00 5.1 10 Noroeste 17 Noroeste 0 -- -- 86
2019-11-11 06:00:00 5.1 7 Oeste 21 Oeste 0 -- -- 85
2019-11-11 05:00:00 4.4 11 Oeste 18 Oeste 0 -- -- 86
2019-11-11 04:00:00 4.7 7 Noroeste 28 Oeste 0 -- -- 85
2019-11-11 03:00:00 4.5 11 Oeste 24 Noroeste 0 -- -- 85
2019-11-11 02:00:00 4.3 13 Oeste 26 Noroeste 0 -- -- 85
2019-11-11 01:00:00 4.4 16 Oeste 33 Oeste 0 -- -- 84
2019-11-11 00:00:00 4.5 20 Oeste 34 Noroeste 0 -- -- 83
2019-11-10 23:00:00 4.8 14 Oeste 29 Oeste 0 -- -- 82
2019-11-10 22:00:00 5 17 Oeste 37 Oeste 0 -- -- 81
2019-11-10 21:00:00 5.4 19 Oeste 37 Oeste 0 -- -- 78
2019-11-10 20:00:00 5.6 21 Oeste 46 Noroeste 0 -- -- 80
2019-11-10 19:00:00 5.9 30 Oeste 49 Oeste 0 -- -- 81
2019-11-10 18:00:00 6.5 30 Oeste 57 Oeste 0 -- -- 79
2019-11-10 17:00:00 7.7 31 Oeste 55 Oeste 0 -- -- 74
2019-11-10 16:00:00 8.9 33 Oeste 65 Oeste 0 -- -- 70
2019-11-10 15:00:00 8.4 32 Oeste 64 Oeste 0 -- -- 72
2019-11-10 14:00:00 9.2 37 Oeste 64 Oeste 0 -- -- 68
2019-11-10 13:00:00 9.1 34 Oeste 64 Oeste 0 -- -- 70
2019-11-10 12:00:00 9.1 33 Oeste 62 Oeste 0 -- -- 72
2019-11-10 11:00:00 7.5 36 Oeste 63 Noroeste 0 -- -- 74
2019-11-10 10:00:00 6.8 35 Oeste 59 Oeste 0 -- -- 77
2019-11-10 09:00:00 5.6 24 Oeste 53 Oeste 0 -- -- 84
2019-11-10 08:00:00 5.2 25 Oeste 47 Oeste 0 -- -- 84
2019-11-10 07:00:00 5.8 31 Oeste 52 Oeste 0 -- -- 83
2019-11-10 06:00:00 6 27 Oeste 51 Noroeste 0 -- -- 81
2019-11-10 05:00:00 6.4 31 Oeste 53 Oeste 0 -- -- 80
2019-11-10 04:00:00 6.8 27 Oeste 50 Oeste 0 -- -- 81
2019-11-10 03:00:00 7.2 30 Oeste 59 Oeste 0 -- -- 79
2019-11-10 02:00:00 7.7 29 Oeste 55 Oeste 0 -- -- 82
2019-11-10 01:00:00 7.9 24 Oeste 45 Oeste 0 -- -- 85
2019-11-10 00:00:00 8.2 18 Oeste 50 Oeste 1.6 -- -- 90
2019-11-09 23:00:00 9.7 20 Oeste 39 Noroeste 0.2 -- -- 85
2019-11-09 22:00:00 9.1 5 Noroeste 15 Oeste 0 -- -- 81
2019-11-09 21:00:00 9.2 5 Oeste 13 Oeste 0 -- -- 81
2019-11-09 20:00:00 10.2 8 Oeste 20 Oeste 0 -- -- 76
2019-11-09 19:00:00 10.7 6 Oeste 15 Noroeste 0 -- -- 72
2019-11-09 18:00:00 11.3 6 Oeste 19 Oeste 0 -- -- 69
2019-11-09 17:00:00 12 13 Oeste 24 Oeste 0 -- -- 63
2019-11-09 16:00:00 12.5 17 Oeste 35 Oeste 0 -- -- 61
2019-11-09 15:00:00 12.7 18 Oeste 45 Oeste 0 -- -- 60
2019-11-09 14:00:00 12.9 26 Oeste 47 Oeste 0 -- -- 55
2019-11-09 13:00:00 13.2 23 Oeste 45 Oeste 0 -- -- 57
2019-11-09 12:00:00 12.6 28 Oeste 49 Oeste 0 -- -- 61
2019-11-09 11:00:00 11.5 29 Oeste 49 Oeste 0 -- -- 65
2019-11-09 10:00:00 10 26 Oeste 46 Oeste 0 -- -- 72
2019-11-09 09:00:00 8.3 24 Oeste 47 Oeste 0 -- -- 78
2019-11-09 08:00:00 7.4 30 Oeste 52 Oeste 0 -- -- 80
2019-11-09 07:00:00 7.4 31 Oeste 51 Oeste 0 -- -- 80
2019-11-09 06:00:00 7.3 29 Oeste 51 Oeste 0 -- -- 81
2019-11-09 05:00:00 7.3 32 Oeste 53 Oeste 0 -- -- 80
2019-11-09 04:00:00 7.4 28 Oeste 54 Oeste 0 -- -- 79
2019-11-09 03:00:00 7.2 28 Oeste 58 Oeste 0 -- -- 81
2019-11-09 02:00:00 7.3 29 Oeste 53 Oeste 0 -- -- 81
2019-11-09 01:00:00 7.2 24 Oeste 46 Oeste 0 -- -- 82
2019-11-09 00:00:00 6.8 19 Oeste 48 Oeste 0 -- -- 84
2019-11-08 23:00:00 6.9 28 Oeste 51 Oeste 0 -- -- 82
2019-11-08 22:00:00 6.8 27 Oeste 51 Noroeste 0 -- -- 87
2019-11-08 21:00:00 6.6 23 Oeste 48 Oeste 0 -- -- 86
2019-11-08 20:00:00 6.7 26 Oeste 44 Oeste 0 -- -- 84
2019-11-08 19:00:00 6.6 26 Oeste 50 Oeste 0 -- -- 83
2019-11-08 18:00:00 6.9 26 Oeste 64 Oeste 0 -- -- 83
2019-11-08 17:00:00 8.1 35 Oeste 63 Noroeste 0 -- -- 74
2019-11-08 16:00:00 8.8 37 Oeste 74 Oeste 0 -- -- 73
2019-11-08 15:00:00 10.9 39 Oeste 69 Oeste 0.2 -- -- 58
2019-11-08 14:00:00 11.2 31 Oeste 58 Oeste 0 -- -- 58
2019-11-08 13:00:00 11.4 33 Oeste 68 Noroeste 0 -- -- 58
2019-11-08 12:00:00 10.2 30 Oeste 56 Oeste 0 -- -- 62
2019-11-08 11:00:00 9.8 28 Oeste 48 Oeste 0 -- -- 63
2019-11-08 10:00:00 7.5 16 Oeste 29 Oeste 0 -- -- 74
2019-11-08 09:00:00 4.7 10 Oeste 16 Oeste 0 -- -- 86
2019-11-08 08:00:00 4.1 10 Oeste 20 Oeste 0 -- -- 87
2019-11-08 07:00:00 4 13 Oeste 26 Oeste 0 -- -- 86
2019-11-08 06:00:00 3.5 5 Sudoeste 15 Oeste 0 -- -- 88
2019-11-08 05:00:00 3.5 6 Oeste 15 Oeste 0 -- -- 88
2019-11-08 04:00:00 4.2 10 Oeste 20 Oeste 0 -- -- 86
2019-11-08 03:00:00 4.9 10 Oeste 20 Oeste 0 -- -- 83
2019-11-08 02:00:00 5.2 10 Oeste 18 Oeste 0 -- -- 84
2019-11-08 01:00:00 5.2 10 Oeste 17 Oeste 0 -- -- 86
2019-11-08 00:00:00 5.3 8 Oeste 19 Oeste 0 -- -- 92
2019-11-07 23:00:00 6 11 Oeste 37 Noroeste 0.2 -- -- 89
2019-11-07 22:00:00 7.5 9 Oeste 15 Oeste 0 -- -- 83
2019-11-07 21:00:00 8.3 6 Noroeste 19 Noroeste 0 -- -- 78
2019-11-07 20:00:00 7.9 3 Noroeste 11 Oeste 0 -- -- 77
2019-11-07 19:00:00 9.1 8 Oeste 21 Oeste 0 -- -- 69
2019-11-07 18:00:00 10.3 8 Oeste 25 Oeste 0 -- -- 65
2019-11-07 17:00:00 12.4 16 Oeste 28 Oeste 0 -- -- 55
2019-11-07 16:00:00 12.5 19 Oeste 36 Oeste 0 -- -- 55
2019-11-07 15:00:00 12.3 22 Oeste 36 Oeste 0 -- -- 65
2019-11-07 14:00:00 11.9 23 Oeste 40 Oeste 0 -- -- 68
2019-11-07 13:00:00 12 23 Oeste 46 Oeste 0 -- -- 69
2019-11-07 12:00:00 13.3 23 Oeste 39 Oeste 0 -- -- 72
2019-11-07 11:00:00 11.8 8 Oeste 18 Oeste 0 -- -- 85
2019-11-07 10:00:00 9.2 5 Noroeste 10 Oeste 0 -- -- 94
2019-11-07 09:00:00 8.2 3 Sudoeste 9 Oeste 0.2 -- -- 94
2019-11-07 08:00:00 7.7 4 Oeste 12 Sudoeste 0 -- -- 94
2019-11-07 07:00:00 7.8 0 Calma 4 Noroeste 0 -- -- 93
2019-11-07 06:00:00 7.9 2 Sur 8 Sur 0 -- -- 93
2019-11-07 05:00:00 8 2 Norte 5 Norte 0 -- -- 93
2019-11-07 04:00:00 7.9 0 Calma 3 Sudeste 0 -- -- 93
2019-11-07 03:00:00 7.7 0 Calma 6 Oeste 0 -- -- 92
2019-11-07 02:00:00 7.7 2 Nordeste 5 Nordeste 0 -- -- 88
2019-11-07 01:00:00 7.3 2 Este 6 Norte 0 -- -- 87
2019-11-07 00:00:00 7.3 4 Norte 8 Noroeste 0 -- -- 87
2019-11-06 23:00:00 8.4 2 Noroeste 6 Oeste 0 -- -- 83
2019-11-06 22:00:00 9.4 3 Oeste 17 Oeste 0 -- -- 79
2019-11-06 21:00:00 10.2 13 Oeste 19 Oeste 0 -- -- 76
2019-11-06 20:00:00 10.3 7 Oeste 21 Noroeste 0 -- -- 76
2019-11-06 19:00:00 11.5 13 Oeste 26 Oeste 0 -- -- 70
2019-11-06 18:00:00 12.7 17 Oeste 32 Oeste 0 -- -- 65
2019-11-06 17:00:00 13.3 20 Oeste 45 Oeste 0 -- -- 63
2019-11-06 16:00:00 14.6 23 Oeste 46 Oeste 0 -- -- 58
2019-11-06 15:00:00 15.2 22 Oeste 47 Oeste 0 -- -- 56
2019-11-06 14:00:00 15.1 27 Oeste 49 Oeste 0 -- -- 56
2019-11-06 13:00:00 14.7 27 Oeste 56 Oeste 0 -- -- 60
2019-11-06 12:00:00 14.1 32 Oeste 58 Oeste 0 -- -- 61
2019-11-06 11:00:00 13.3 27 Oeste 54 Oeste 0 -- -- 64
2019-11-06 10:00:00 12 29 Oeste 51 Oeste 0 -- -- 69
2019-11-06 09:00:00 10.3 18 Oeste 39 Oeste 0 -- -- 76
2019-11-06 08:00:00 9.8 19 Oeste 52 Oeste 0 -- -- 77
2019-11-06 07:00:00 10.1 28 Oeste 50 Oeste 0 -- -- 76
2019-11-06 06:00:00 10 28 Oeste 48 Oeste 0 -- -- 79
2019-11-06 05:00:00 9.6 26 Oeste 43 Oeste 0 -- -- 81
2019-11-06 04:00:00 9.3 19 Oeste 34 Oeste 0 -- -- 82
2019-11-06 03:00:00 9.1 21 Oeste 40 Oeste 0 -- -- 82
2019-11-06 02:00:00 9.1 22 Oeste 53 Oeste 0 -- -- 80
2019-11-06 01:00:00 9.3 24 Oeste 41 Oeste 0 -- -- 80
2019-11-06 00:00:00 9.5 26 Oeste 46 Oeste 0 -- -- 79
2019-11-05 23:00:00 9.5 23 Oeste 41 Oeste 0 -- -- 79
2019-11-05 22:00:00 9.7 24 Oeste 42 Oeste 0 -- -- 77
2019-11-05 21:00:00 9.9 20 Oeste 44 Oeste 0 -- -- 75
2019-11-05 20:00:00 10.2 16 Oeste 32 Oeste 0 -- -- 70
2019-11-05 19:00:00 11.5 23 Oeste 41 Oeste 0 -- -- 65
2019-11-05 18:00:00 12.3 19 Oeste 41 Oeste 0 -- -- 64
2019-11-05 17:00:00 13.7 23 Oeste 46 Oeste 0 -- -- 60
2019-11-05 16:00:00 14.4 28 Oeste 48 Oeste 0 -- -- 56
2019-11-05 15:00:00 14.6 29 Oeste 48 Oeste 0 -- -- 54
2019-11-05 14:00:00 14.9 28 Oeste 46 Oeste 0 -- -- 51
2019-11-05 13:00:00 14.4 19 Oeste 39 Oeste 0 -- -- 57
2019-11-05 12:00:00 13.7 14 Oeste 33 Sudoeste 0 -- -- 64
2019-11-05 11:00:00 12.5 15 Oeste 30 Oeste 0 -- -- 68
2019-11-05 10:00:00 11 10 Oeste 18 Sudoeste 0 -- -- 79
2019-11-05 09:00:00 9.1 8 Oeste 13 Oeste 0 -- -- 81
2019-11-05 08:00:00 7.9 5 Oeste 10 Oeste 0 -- -- 86
2019-11-05 07:00:00 8.1 7 Oeste 13 Oeste 0 -- -- 88
2019-11-05 06:00:00 8.4 8 Oeste 14 Sudoeste 0 -- -- 88
2019-11-05 05:00:00 8.7 5 Oeste 8 Oeste 0 -- -- 91
2019-11-05 04:00:00 9.2 5 Oeste 12 Oeste 0 -- -- 89
2019-11-05 03:00:00 10.1 8 Oeste 13 Oeste 0 -- -- 87
2019-11-05 02:00:00 11.1 7 Oeste 21 Oeste 0 -- -- 88
2019-11-05 01:00:00 12.2 10 Oeste 17 Oeste 0 -- -- 88
2019-11-05 00:00:00 12.9 4 Oeste 17 Oeste 0 -- -- 92
2019-11-04 23:00:00 13 5 Sur 13 Sur 0 -- -- 94
2019-11-04 22:00:00 13.1 4 Sudeste 8 Sudoeste 0 -- -- 94
2019-11-04 21:00:00 13.2 4 Sur 22 Oeste 0.6 -- -- 92
2019-11-04 20:00:00 13.8 13 Noroeste 31 Oeste 2.8 -- -- 91
2019-11-04 19:00:00 15.2 14 Noroeste 41 Oeste 0.2 -- -- 85
2019-11-04 18:00:00 19.6 17 Sudoeste 38 Sudoeste 0 -- -- 54
2019-11-04 17:00:00 19.8 8 Sudoeste 31 Oeste 0 -- -- 53
2019-11-04 16:00:00 21.3 18 Sudoeste 40 Oeste 0 -- -- 48
2019-11-04 15:00:00 21.6 16 Oeste 42 Sudoeste 0 -- -- 48
2019-11-04 14:00:00 20.8 24 Sudoeste 51 Sudoeste 0 -- -- 48
2019-11-04 13:00:00 20.3 24 Sudoeste 40 Oeste 0 -- -- 51
2019-11-04 12:00:00 19.4 18 Oeste 39 Oeste 0 -- -- 54
2019-11-04 11:00:00 17.9 10 Oeste 31 Sudoeste 0 -- -- 59
2019-11-04 10:00:00 15.6 0 Calma 6 Norte 0 -- -- 67
2019-11-04 09:00:00 12.6 2 Nordeste 6 Nordeste 0 -- -- 80
2019-11-04 08:00:00 9 3 Este 6 Este 0 -- -- 90
2019-11-04 07:00:00 8.9 2 Este 6 Oeste 0 -- -- 88
2019-11-04 06:00:00 9.6 0 Calma 6 Sudeste 0 -- -- 83
2019-11-04 05:00:00 9.4 2 Sudeste 6 Sur 0 -- -- 85
2019-11-04 04:00:00 9.4 2 Norte 8 Norte 0 -- -- 84
2019-11-04 03:00:00 9.8 7 Norte 10 Norte 0 -- -- 78
2019-11-04 02:00:00 8.7 2 Norte 5 Sudeste 0 -- -- 84
2019-11-04 01:00:00 8.1 0 Calma 6 Sudeste 0 -- -- 83
2019-11-04 00:00:00 8 3 Este 4 Este 0 -- -- 82
2019-11-03 23:00:00 8.9 3 Nordeste 6 Nordeste 0 -- -- 77
2019-11-03 22:00:00 10.2 3 Noroeste 9 Oeste 0 -- -- 72
2019-11-03 21:00:00 11 5 Sudoeste 13 Oeste 0 -- -- 69
2019-11-03 20:00:00 12.3 9 Oeste 17 Oeste 0 -- -- 61
2019-11-03 19:00:00 12.4 4 Oeste 14 Noroeste 0 -- -- 63
2019-11-03 18:00:00 13.9 8 Noroeste 28 Oeste 0 -- -- 57
2019-11-03 17:00:00 15.8 15 Noroeste 45 Oeste 0 -- -- 50
2019-11-03 16:00:00 16.4 31 Noroeste 62 Noroeste 0 -- -- 45
2019-11-03 15:00:00 16.6 33 Oeste 62 Noroeste 0 -- -- 46
2019-11-03 14:00:00 16.3 40 Oeste 72 Oeste 0 -- -- 47
2019-11-03 13:00:00 15.6 45 Oeste 73 Oeste 0 -- -- 48
2019-11-03 12:00:00 14.8 40 Oeste 70 Oeste 0 -- -- 51
2019-11-03 11:00:00 14 34 Oeste 57 Oeste 0 -- -- 60
2019-11-03 10:00:00 13.1 27 Oeste 54 Oeste 0 -- -- 64
2019-11-03 09:00:00 11.7 30 Noroeste 71 Oeste 0.8 -- -- 76
2019-11-03 08:00:00 15.2 24 Oeste 39 Sudoeste 0 -- -- 76
2019-11-03 07:00:00 15.8 15 Sudoeste 32 Sudoeste 0 -- -- 70
2019-11-03 06:00:00 16 15 Sudoeste 28 Oeste 0 -- -- 66
2019-11-03 05:00:00 16.1 14 Oeste 44 Sudoeste 0 -- -- 61
2019-11-03 04:00:00 16.7 12 Sudoeste 34 Oeste 0 -- -- 59
2019-11-03 03:00:00 16.5 10 Oeste 30 Sudoeste 0 -- -- 61
2019-11-03 02:00:00 16.6 16 Sudoeste 34 Sudoeste 0 -- -- 61
2019-11-03 01:00:00 17.3 22 Oeste 41 Sudoeste 0 -- -- 57
2019-11-03 00:00:00 15.5 8 Sudoeste 19 Oeste 0.2 -- -- 87
2019-11-02 23:00:00 15.2 10 Sudoeste 20 Sudoeste 0 -- -- 86
2019-11-02 22:00:00 14.6 0 Calma 5 Sudeste 0 -- -- 84
2019-11-02 21:00:00 15.1 0 Calma 6 Oeste 0 -- -- 81
2019-11-02 20:00:00 16.2 2 Oeste 9 Oeste 0 -- -- 76
2019-11-02 19:00:00 17.3 4 Oeste 15 Oeste 0 -- -- 70
2019-11-02 18:00:00 18.6 9 Oeste 15 Oeste 0 -- -- 65
2019-11-02 17:00:00 20.4 10 Oeste 31 Oeste 0 -- -- 61
2019-11-02 16:00:00 19.9 9 Oeste 25 Sudoeste 0 -- -- 69
2019-11-02 15:00:00 19 14 Oeste 27 Noroeste 0 -- -- 76
2019-11-02 14:00:00 21.2 9 Oeste 35 Oeste 0 -- -- 59
2019-11-02 13:00:00 20.9 19 Sudoeste 29 Oeste 0 -- -- 60
2019-11-02 12:00:00 19.4 5 Sudeste 11 Sudeste 0 -- -- 79
2019-11-02 11:00:00 16.2 3 Sudeste 9 Sudeste 0 -- -- 94
2019-11-02 10:00:00 14.7 3 Sudeste 5 Sur 0 -- -- 96
2019-11-02 09:00:00 13.2 0 Calma 9 Este 0 -- -- 96
2019-11-02 08:00:00 11.7 3 Este 6 Este 0 -- -- 95
2019-11-02 07:00:00 12 3 Sudeste 11 Norte 0 -- -- 91
2019-11-02 06:00:00 13.5 7 Norte 12 Norte 0 -- -- 93
2019-11-02 05:00:00 13.9 2 Noroeste 10 Oeste 0 -- -- 91
2019-11-02 04:00:00 14.7 6 Noroeste 15 Oeste 0 -- -- 91
2019-11-02 03:00:00 13.9 3 Sudoeste 7 Oeste 0 -- -- 95
2019-11-02 02:00:00 14.7 0 Calma 6 Sudeste 0 -- -- 94
2019-11-02 01:00:00 15.6 0 Calma 5 Sudoeste 0 -- -- 93
2019-11-02 00:00:00 16.6 0 Calma 5 Norte 0 -- -- 91
2019-11-01 23:00:00 17.6 4 Noroeste 12 Oeste 0 -- -- 88
2019-11-01 22:00:00 17.7 5 Noroeste 23 Sudoeste 0.6 -- -- 90
2019-11-01 21:00:00 17.7 4 Sudoeste 21 Sudoeste 0 -- -- 88
2019-11-01 20:00:00 17.7 3 Este 12 Sudoeste 0.2 -- -- 85
2019-11-01 19:00:00 18.6 7 Sudeste 12 Sudeste 0 -- -- 80
2019-11-01 18:00:00 19.7 5 Sudeste 13 Sudeste 0 -- -- 71
2019-11-01 17:00:00 22.1 2 Noroeste 14 Noroeste 0 -- -- 63
2019-11-01 16:00:00 23.1 6 Oeste 23 Oeste 0 -- -- 58
2019-11-01 15:00:00 22.6 12 Oeste 29 Oeste 0 -- -- 61
2019-11-01 14:00:00 21.8 2 Oeste 9 Sudeste 0 -- -- 67
2019-11-01 13:00:00 20.6 5 Sudeste 12 Sudeste 0 -- -- 64
2019-11-01 12:00:00 18.9 6 Sudeste 10 Sudeste 0 -- -- 68
2019-11-01 11:00:00 16.9 3 Nordeste 10 Nordeste 0 -- -- 73
2019-11-01 10:00:00 14.7 0 Calma 6 Sur 0 -- -- 77
2019-11-01 09:00:00 13.8 0 Calma 6 Sudeste 0 -- -- 77
2019-11-01 08:00:00 11.9 4 Sudeste 10 Sudeste 0 -- -- 88
2019-11-01 07:00:00 11.9 0 Calma 4 Sur 0 -- -- 88
2019-11-01 06:00:00 11.7 2 Noroeste 5 Norte 0 -- -- 87
2019-11-01 05:00:00 11.7 0 Calma 4 Nordeste 0 -- -- 86
2019-11-01 04:00:00 12.4 0 Calma 11 Norte 0 -- -- 84
2019-11-01 03:00:00 12.5 8 Norte 13 Noroeste 0 -- -- 82
2019-11-01 02:00:00 11.8 4 Noroeste 8 Oeste 0 -- -- 83
2019-11-01 01:00:00 12.8 3 Noroeste 14 Oeste 0 -- -- 79
2019-11-01 00:00:00 13 6 Noroeste 14 Oeste 0 -- -- 76
2019-10-31 23:00:00 14.5 9 Oeste 21 Oeste 0 -- -- 69
2019-10-31 22:00:00 14.5 13 Oeste 21 Oeste 0 -- -- 70
2019-10-31 21:00:00 15.2 2 Nordeste 16 Oeste 0 -- -- 68
2019-10-31 20:00:00 16.3 4 Norte 38 Oeste 0 -- -- 63
2019-10-31 19:00:00 17.9 25 Oeste 40 Oeste 0 -- -- 56
2019-10-31 18:00:00 18.8 17 Oeste 41 Noroeste 0 -- -- 56
2019-10-31 17:00:00 20.4 21 Oeste 50 Oeste 0 -- -- 53
2019-10-31 16:00:00 21.5 30 Oeste 52 Oeste 0 -- -- 50
2019-10-31 15:00:00 21.8 28 Oeste 53 Oeste 0 -- -- 49
2019-10-31 14:00:00 22 30 Oeste 54 Oeste 0 -- -- 49
2019-10-31 13:00:00 21.7 37 Oeste 57 Oeste 0 -- -- 48
2019-10-31 12:00:00 21.2 27 Oeste 50 Oeste 0 -- -- 56
2019-10-31 11:00:00 20.2 22 Oeste 46 Oeste 0 -- -- 65
2019-10-31 10:00:00 18.5 26 Oeste 44 Oeste 0 -- -- 73
2019-10-31 09:00:00 17 22 Oeste 36 Oeste 0 -- -- 80
2019-10-31 08:00:00 16.1 17 Oeste 30 Oeste 0 -- -- 82
2019-10-31 07:00:00 16 17 Oeste 29 Oeste 0 -- -- 88
2019-10-31 06:00:00 13.1 2 Sudoeste 5 Noroeste 0 -- -- 98
2019-10-31 05:00:00 12.5 0 Calma 8 Nordeste 0 -- -- 98
2019-10-31 04:00:00 12.1 0 Calma 4 Nordeste 0 -- -- 98
2019-10-31 03:00:00 12.4 0 Calma 4 Oeste 0 -- -- 97
2019-10-31 02:00:00 12.2 0 Calma 5 Sudoeste 0 -- -- 97
2019-10-31 01:00:00 12.6 0 Calma 6 Norte 0 -- -- 97
2019-10-31 00:00:00 12.4 3 Norte 5 Norte 0 -- -- 96
2019-10-30 23:00:00 12.9 2 Noroeste 4 Noroeste 0 -- -- 96
2019-10-30 22:00:00 13.4 0 Calma 3 Sur 0 -- -- 95
2019-10-30 21:00:00 13.6 0 Calma 5 Sudoeste 0 -- -- 94
2019-10-30 20:00:00 13.8 0 Calma 5 Sudeste 0 -- -- 93
2019-10-30 19:00:00 14.1 3 Este 9 Sudeste 0 -- -- 92
2019-10-30 18:00:00 15 4 Sudeste 11 Sudeste 0 -- -- 89
2019-10-30 17:00:00 16.1 5 Sudeste 12 Sudeste 0 -- -- 85
2019-10-30 16:00:00 17.5 6 Sudeste 15 Sudeste 0 -- -- 80
2019-10-30 15:00:00 17.8 8 Sudeste 15 Sudeste 0 -- -- 80
2019-10-30 14:00:00 16.9 6 Sudeste 12 Sur 0 -- -- 90
2019-10-30 13:00:00 13.9 3 Sudeste 8 Sudeste 0 -- -- 99
2019-10-30 12:00:00 12.7 0 Calma 5 Norte 0 -- -- 99
2019-10-30 11:00:00 12 0 Calma 6 Nordeste 0 -- -- 99
2019-10-30 10:00:00 11.6 0 Calma 5 Norte 0 -- -- 99
2019-10-30 09:00:00 11.1 0 Calma 6 Norte 0 -- -- 99
2019-10-30 08:00:00 11.2 2 Noroeste 5 Noroeste 0 -- -- 99
2019-10-30 07:00:00 11.5 3 Noroeste 6 Norte 0 -- -- 98
2019-10-30 06:00:00 11.6 0 Calma 2 Norte 0 -- -- 98
2019-10-30 05:00:00 11.5 3 Norte 5 Norte 0 -- -- 98
2019-10-30 04:00:00 11.4 3 Norte 4 Norte 0 -- -- 98
2019-10-30 03:00:00 11.2 0 Calma 5 Norte 0 -- -- 98
2019-10-30 02:00:00 11.1 0 Calma 4 Noroeste 0 -- -- 98
2019-10-30 01:00:00 11 0 Calma 3 Noroeste 0 -- -- 96
2019-10-30 00:00:00 11.5 0 Calma 5 Noroeste 0 -- -- 96
2019-10-29 23:00:00 12.2 0 Calma 2 Este 0 -- -- 95
2019-10-29 22:00:00 13 3 Sudoeste 5 Oeste 0 -- -- 94
2019-10-29 21:00:00 14.4 0 Calma 11 Este 0 -- -- 91
2019-10-29 20:00:00 15.1 6 Este 12 Este 0 -- -- 89
2019-10-29 19:00:00 15.9 8 Este 12 Este 0 -- -- 87
2019-10-29 18:00:00 17.4 7 Sudeste 14 Este 0 -- -- 82
2019-10-29 17:00:00 20 10 Este 14 Este 0 -- -- 73
2019-10-29 16:00:00 21.1 5 Sudeste 8 Sudeste 0 -- -- 67
2019-10-29 15:00:00 20.3 3 Sur 6 Nordeste 0 -- -- 73
2019-10-29 14:00:00 18.4 2 Noroeste 8 Sudoeste 0 -- -- 78
2019-10-29 13:00:00 15.5 4 Oeste 8 Sur 0 -- -- 96
2019-10-29 12:00:00 12.9 2 Noroeste 6 Sudoeste 0 -- -- 99
2019-10-29 11:00:00 12 3 Sudoeste 6 Oeste 0 -- -- 99
2019-10-29 10:00:00 10.4 0 Calma 8 Oeste 0 -- -- 99
2019-10-29 09:00:00 9.4 3 Noroeste 8 Noroeste 0 -- -- 99
2019-10-29 08:00:00 8.4 3 Noroeste 5 Oeste 0 -- -- 98
2019-10-29 07:00:00 8.4 4 Oeste 6 Oeste 0 -- -- 98
2019-10-29 06:00:00 9.4 3 Oeste 6 Norte 0 -- -- 97
2019-10-29 05:00:00 9.7 4 Norte 6 Norte 0 -- -- 97
2019-10-29 04:00:00 9 5 Norte 8 Norte 0 -- -- 97
2019-10-29 03:00:00 9.4 2 Noroeste 6 Oeste 0 -- -- 96
2019-10-29 02:00:00 9.8 2 Norte 5 Norte 0 -- -- 96
2019-10-29 01:00:00 10 3 Noroeste 7 Norte 0 -- -- 95
2019-10-29 00:00:00 10.6 3 Noroeste 9 Noroeste 0 -- -- 94
2019-10-28 23:00:00 11.4 4 Oeste 9 Norte 0 -- -- 94
2019-10-28 22:00:00 11.5 4 Noroeste 8 Noroeste 0 -- -- 94
2019-10-28 21:00:00 12.3 0 Calma 4 Oeste 0 -- -- 92
2019-10-28 20:00:00 13.5 0 Calma 4 Nordeste 0 -- -- 89
2019-10-28 19:00:00 14.9 2 Nordeste 4 Este 0 -- -- 85
2019-10-28 18:00:00 16.5 2 Sudoeste 9 Sudeste 0 -- -- 79
2019-10-28 17:00:00 18.6 5 Este 12 Sudeste 0 -- -- 70
2019-10-28 16:00:00 18.1 5 Sudeste 13 Este 0 -- -- 73
2019-10-28 15:00:00 18 6 Este 10 Este 0 -- -- 75
2019-10-28 14:00:00 17.1 2 Este 5 Este 0 -- -- 79
2019-10-28 13:00:00 15.9 3 Este 10 Oeste 0 -- -- 83
2019-10-28 12:00:00 15.2 2 Norte 5 Sudeste 0 -- -- 86
2019-10-28 11:00:00 14.1 0 Calma 8 Oeste 0 -- -- 90
2019-10-28 10:00:00 13.1 2 Noroeste 9 Norte 0 -- -- 93
2019-10-28 09:00:00 12.1 3 Noroeste 9 Oeste 0 -- -- 95
2019-10-28 08:00:00 11.2 4 Nordeste 6 Nordeste 0 -- -- 95
2019-10-28 07:00:00 11 3 Noroeste 9 Oeste 0 -- -- 95
2019-10-28 06:00:00 11.4 2 Norte 6 Norte 0 -- -- 94
2019-10-28 05:00:00 11.3 3 Norte 6 Oeste 0 -- -- 93
2019-10-28 04:00:00 11.4 5 Oeste 9 Sudoeste 0 -- -- 94
2019-10-28 03:00:00 11.9 2 Norte 5 Norte 0 -- -- 93
2019-10-28 02:00:00 12 3 Noroeste 6 Oeste 0 -- -- 92
2019-10-28 01:00:00 12.3 3 Nordeste 6 Oeste 0 -- -- 91
2019-10-28 00:00:00 13.1 0 Calma 5 Oeste 0 -- -- 89
2019-10-27 23:00:00 13.6 3 Noroeste 5 Noroeste 0 -- -- 87
2019-10-27 22:00:00 14.1 2 Noroeste 5 Noroeste 0 -- -- 85
2019-10-27 21:00:00 14.6 4 Oeste 6 Oeste 0 -- -- 82
2019-10-27 20:00:00 15.3 4 Nordeste 6 Nordeste 0 -- -- 77
2019-10-27 19:00:00 16.5 3 Nordeste 7 Este 0 -- -- 71
2019-10-27 18:00:00 18.4 4 Este 10 Sudeste 0 -- -- 66
2019-10-27 17:00:00 20.8 6 Sudeste 9 Sudeste 0 -- -- 56
2019-10-27 16:00:00 21 5 Sudeste 12 Sudeste 0 -- -- 56
2019-10-27 15:00:00 20.8 6 Este 9 Este 0 -- -- 56
2019-10-27 14:00:00 20.8 5 Este 12 Este 0 -- -- 57
2019-10-27 13:00:00 19.9 4 Sur 10 Sudeste 0 -- -- 61
2019-10-27 12:00:00 17.9 2 Este 9 Sudeste 0 -- -- 66
2019-10-27 11:00:00 14.5 2 Sudoeste 5 Oeste 0 -- -- 80
2019-10-27 10:00:00 12 2 Sudoeste 6 Sudoeste 0 -- -- 91
2019-10-27 09:00:00 10 0 Calma 6 Norte 0 -- -- 94
2019-10-27 08:00:00 7.9 3 Noroeste 5 Norte 0 -- -- 96
2019-10-27 07:00:00 7.8 3 Norte 5 Norte 0 -- -- 96
2019-10-27 06:00:00 8.1 0 Calma 6 Noroeste 0 -- -- 95
2019-10-27 05:00:00 8.5 3 Noroeste 5 Oeste 0 -- -- 95
2019-10-27 04:00:00 8.8 3 Noroeste 7 Noroeste 0 -- -- 94
2019-10-27 03:00:00 9.4 2 Noroeste 7 Oeste 0 -- -- 94
2019-10-27 02:00:00 9.6 2 Norte 6 Oeste 0 -- -- 93
2019-10-27 01:00:00 11.2 3 Noroeste 8 Noroeste 0 -- -- 89
2019-10-27 00:00:00 11.8 0 Calma 5 Sudoeste 0 -- -- 89
2019-10-26 23:00:00 12.3 3 Nordeste 5 Este 0 -- -- 84
2019-10-26 22:00:00 13.7 2 Noroeste 6 Norte 0 -- -- 83
2019-10-26 21:00:00 15.1 5 Norte 7 Norte 0 -- -- 78
2019-10-26 20:00:00 16.9 4 Nordeste 6 Nordeste 0 -- -- 71
2019-10-26 19:00:00 19 3 Este 10 Este 0 -- -- 66
2019-10-26 18:00:00 21.2 5 Este 12 Sudeste 0 -- -- 59
2019-10-26 17:00:00 21.4 8 Este 14 Sudeste 0 -- -- 57
2019-10-26 16:00:00 21 6 Este 11 Este 0 -- -- 58
2019-10-26 15:00:00 20.6 6 Este 13 Sudeste 0 -- -- 54
2019-10-26 14:00:00 19.6 8 Sudeste 17 Sudeste 0 -- -- 59
2019-10-26 13:00:00 18.2 4 Sudeste 13 Sur 0 -- -- 69
2019-10-26 12:00:00 15.3 0 Calma 5 Sudeste 0 -- -- 78
2019-10-26 11:00:00 11.6 2 Oeste 5 Oeste 0 -- -- 91
2019-10-26 10:00:00 9.1 0 Calma 0 Calma 0 -- -- 97
2019-10-26 09:00:00 7.1 0 Calma 0 Calma 0 -- -- 97
2019-10-26 08:00:00 7.6 0 Calma 0 Calma 0 -- -- 96
2019-10-26 07:00:00 7.5 0 Calma 0 Calma 0 -- -- 96
2019-10-26 06:00:00 8.5 0 Calma 0 Calma 0 -- -- 95
2019-10-26 05:00:00 8.5 0 Calma 0 Calma 0 -- -- 95
2019-10-26 04:00:00 9 0 Calma 0 Calma 0 -- -- 94
2019-10-26 03:00:00 9.7 0 Calma 0 Calma 0 -- -- 94
2019-10-26 02:00:00 10.3 0 Calma 2 Sudoeste 0 -- -- 91
2019-10-26 01:00:00 10.8 0 Calma 2 Norte 0 -- -- 91
2019-10-26 00:00:00 11.5 0 Calma 3 Norte 0 -- -- 89
2019-10-25 23:00:00 12.5 0 Calma 3 Oeste 0 -- -- 87
2019-10-25 22:00:00 13.8 3 Oeste 5 Este 0 -- -- 85
2019-10-25 21:00:00 15.1 2 Este 11 Este 0 -- -- 78
2019-10-25 20:00:00 16 6 Este 15 Este 0 -- -- 76
2019-10-25 19:00:00 17.9 6 Este 15 Este 0 -- -- 71
2019-10-25 18:00:00 20 10 Este 18 Este 0 -- -- 63
2019-10-25 17:00:00 22.4 4 Sudeste 9 Sudeste 0 -- -- 54
2019-10-25 16:00:00 21.7 5 Este 9 Este 0 -- -- 57
2019-10-25 15:00:00 20.6 2 Norte 9 Este 0 -- -- 57
2019-10-25 14:00:00 19.4 3 Noroeste 12 Oeste 0 -- -- 60
2019-10-25 13:00:00 18.1 3 Sudoeste 16 Noroeste 0 -- -- 65
2019-10-25 12:00:00 15.2 11 Oeste 19 Oeste 0 -- -- 78
2019-10-25 11:00:00 12.7 5 Noroeste 17 Oeste 0 -- -- 84
2019-10-25 10:00:00 10.1 7 Noroeste 13 Noroeste 0 -- -- 94
2019-10-25 09:00:00 8.1 2 Noroeste 5 Noroeste 0 -- -- 95
2019-10-25 08:00:00 8 3 Noroeste 6 Oeste 0 -- -- 93
2019-10-25 07:00:00 8.6 0 Calma 8 Noroeste 0 -- -- 89
2019-10-25 06:00:00 9.8 5 Norte 14 Noroeste 0 -- -- 88
2019-10-25 05:00:00 10.6 6 Noroeste 16 Oeste 0 -- -- 87
2019-10-25 04:00:00 11.8 10 Oeste 16 Oeste 0 -- -- 83
2019-10-25 03:00:00 11.2 3 Norte 10 Noroeste 0 -- -- 84
2019-10-25 02:00:00 12.1 5 Noroeste 22 Oeste 0 -- -- 82
2019-10-25 01:00:00 13.5 14 Oeste 31 Noroeste 0 -- -- 76
2019-10-25 00:00:00 14.1 15 Oeste 36 Oeste 0 -- -- 73
2019-10-24 23:00:00 14.2 23 Oeste 39 Oeste 0 -- -- 72
2019-10-24 22:00:00 13.3 13 Oeste 33 Oeste 0 -- -- 75
2019-10-24 21:00:00 13.6 14 Oeste 28 Oeste 0 -- -- 72
2019-10-24 20:00:00 14.3 18 Oeste 32 Oeste 0 -- -- 69
2019-10-24 19:00:00 15.1 15 Oeste 36 Noroeste 0 -- -- 62
2019-10-24 18:00:00 16.8 20 Oeste 42 Oeste 0 -- -- 54
2019-10-24 17:00:00 17.5 20 Oeste 43 Oeste 0 -- -- 50
2019-10-24 16:00:00 17.7 22 Oeste 38 Oeste 0 -- -- 50
2019-10-24 15:00:00 17.1 16 Oeste 31 Oeste 0 -- -- 55
2019-10-24 14:00:00 16 19 Oeste 37 Oeste 0 -- -- 60
2019-10-24 13:00:00 15.2 21 Oeste 41 Oeste 0 -- -- 64
2019-10-24 12:00:00 13.8 18 Oeste 29 Oeste 0 -- -- 73
2019-10-24 11:00:00 12.4 11 Oeste 23 Noroeste 0 -- -- 84
2019-10-24 10:00:00 10.1 5 Oeste 12 Oeste 0 -- -- 94
2019-10-24 09:00:00 8.4 6 Oeste 11 Oeste 0 -- -- 95
2019-10-24 08:00:00 8.2 5 Oeste 11 Oeste 0 -- -- 95
2019-10-24 07:00:00 7.6 0 Calma 9 Oeste 0 -- -- 95
2019-10-24 06:00:00 8 4 Noroeste 10 Oeste 0 -- -- 96
2019-10-24 05:00:00 8.2 0 Calma 6 Este 0 -- -- 96
2019-10-24 04:00:00 9 4 Oeste 8 Sudoeste 0 -- -- 95
2019-10-24 03:00:00 9.7 3 Sudoeste 8 Norte 0 -- -- 93
2019-10-24 02:00:00 10.5 6 Norte 13 Oeste 0 -- -- 93
2019-10-24 01:00:00 10.3 5 Oeste 12 Oeste 0 -- -- 92
2019-10-24 00:00:00 11 4 Nordeste 12 Sudoeste 0 -- -- 90
2019-10-23 23:00:00 12.4 3 Sudeste 11 Sudoeste 0 -- -- 86
2019-10-23 22:00:00 12.9 3 Oeste 8 Norte 0 -- -- 83
2019-10-23 21:00:00 13 4 Oeste 8 Oeste 0 -- -- 82
2019-10-23 20:00:00 13.1 4 Sur 9 Este 0 -- -- 79
2019-10-23 19:00:00 15 5 Sudeste 13 Sudeste 0 -- -- 74
2019-10-23 18:00:00 16.6 4 Sudeste 9 Sudeste 0 -- -- 68
2019-10-23 17:00:00 17.1 4 Sudeste 15 Sur 0 -- -- 69
2019-10-23 16:00:00 16.1 5 Sur 12 Sudeste 0 -- -- 74
2019-10-23 15:00:00 15.7 5 Este 13 Nordeste 0 -- -- 75
2019-10-23 14:00:00 14.9 3 Sudeste 13 Este 0 -- -- 76
2019-10-23 13:00:00 14.2 8 Sudeste 17 Sudeste 0 -- -- 81
2019-10-23 12:00:00 12.8 8 Sudeste 13 Sudeste 0 -- -- 93
2019-10-23 11:00:00 12 6 Sudeste 15 Sudeste 0 -- -- 95
2019-10-23 10:00:00 11.8 7 Sudeste 14 Este 0 -- -- 95
2019-10-23 09:00:00 11.4 3 Sudeste 12 Nordeste 0 -- -- 95
2019-10-23 08:00:00 11.4 4 Nordeste 8 Nordeste 0 -- -- 93
2019-10-23 07:00:00 11.5 0 Calma 19 Sur 0 -- -- 89
2019-10-23 06:00:00 12.5 6 Sudeste 35 Nordeste 0 -- -- 82
2019-10-23 05:00:00 13.3 26 Nordeste 43 Nordeste 0 -- -- 77
2019-10-23 04:00:00 13.4 26 Nordeste 58 Norte 0 -- -- 80
2019-10-23 03:00:00 13.6 43 Nordeste 77 Nordeste 1.6 -- -- 87
2019-10-23 02:00:00 13 26 Nordeste 41 Nordeste 3.4 -- -- 97
2019-10-23 01:00:00 10.8 7 Este 28 Este 5.2 -- -- 98
2019-10-23 00:00:00 10.1 11 Nordeste 24 Nordeste 2.6 -- -- 97
2019-10-22 23:00:00 10.2 14 Este 24 Este 0 -- -- 97
2019-10-22 22:00:00 10.5 5 Norte 12 Norte 0 -- -- 97
2019-10-22 21:00:00 10.4 4 Noroeste 10 Norte 0 -- -- 97
2019-10-22 20:00:00 10.1 2 Norte 8 Oeste 0.2 -- -- 97
2019-10-22 19:00:00 10 3 Norte 18 Sur 1.4 -- -- 97
2019-10-22 18:00:00 10 6 Sudoeste 13 Sudoeste 2.4 -- -- 97
2019-10-22 17:00:00 9.8 7 Oeste 16 Noroeste 1.8 -- -- 96
2019-10-22 16:00:00 9.6 5 Noroeste 27 Noroeste 3.2 -- -- 97
2019-10-22 15:00:00 9.2 12 Oeste 24 Oeste 8.2 -- -- 96
2019-10-22 14:00:00 9.2 16 Oeste 33 Noroeste 4 -- -- 96
2019-10-22 13:00:00 9.7 19 Oeste 34 Noroeste 1 -- -- 93
2019-10-22 12:00:00 10.3 13 Oeste 24 Oeste 0.2 -- -- 92
2019-10-22 11:00:00 9.9 11 Oeste 18 Oeste 0.4 -- -- 93
2019-10-22 10:00:00 9.4 7 Oeste 14 Oeste 0.2 -- -- 93
2019-10-22 09:00:00 9.3 5 Oeste 12 Norte 0 -- -- 91
2019-10-22 08:00:00 9 8 Norte 14 Oeste 0 -- -- 90
2019-10-22 07:00:00 8.5 9 Oeste 16 Oeste 0 -- -- 92
2019-10-22 06:00:00 8.8 4 Noroeste 8 Oeste 0 -- -- 91
2019-10-22 05:00:00 8.8 0 Calma 9 Noroeste 0 -- -- 90
2019-10-22 04:00:00 8.7 4 Noroeste 10 Noroeste 0 -- -- 91
2019-10-22 03:00:00 8.8 5 Oeste 9 Norte 0 -- -- 90
2019-10-22 02:00:00 9.6 4 Norte 15 Noroeste 0 -- -- 85
2019-10-22 01:00:00 9.6 5 Noroeste 15 Noroeste 0 -- -- 88
2019-10-22 00:00:00 9.7 4 Noroeste 13 Noroeste 0 -- -- 86
2019-10-21 23:00:00 10.9 3 Noroeste 8 Noroeste 0 -- -- 82
2019-10-21 22:00:00 11.6 2 Oeste 7 Este 0 -- -- 81
2019-10-21 21:00:00 11.7 3 Nordeste 8 Sur 0 -- -- 76
2019-10-21 20:00:00 12.9 3 Este 8 Este 0 -- -- 71
2019-10-21 19:00:00 15.3 3 Sudeste 7 Este 0 -- -- 65
2019-10-21 18:00:00 16.8 2 Norte 10 Nordeste 0 -- -- 54
2019-10-21 17:00:00 16.2 2 Nordeste 10 Este 0 -- -- 60
2019-10-21 16:00:00 15.9 4 Este 14 Este 0 -- -- 64
2019-10-21 15:00:00 15.8 4 Este 9 Sudeste 0 -- -- 61
2019-10-21 14:00:00 15.1 4 Sudoeste 8 Este 0 -- -- 66
2019-10-21 13:00:00 13.6 4 Sudeste 10 Sudoeste 0 -- -- 72
2019-10-21 12:00:00 11.8 4 Oeste 10 Sudoeste 0 -- -- 81
2019-10-21 11:00:00 10.7 4 Noroeste 10 Oeste 0 -- -- 87
2019-10-21 10:00:00 9 5 Norte 9 Norte 0 -- -- 98
2019-10-21 09:00:00 7.2 4 Noroeste 9 Noroeste 0 -- -- 96
2019-10-21 08:00:00 6.5 0 Calma 6 Noroeste 0 -- -- 95
2019-10-21 07:00:00 7 4 Noroeste 10 Norte 0 -- -- 96
2019-10-21 06:00:00 7.7 5 Noroeste 10 Oeste 0 -- -- 95
2019-10-21 05:00:00 8.2 3 Noroeste 7 Noroeste 0 -- -- 94
2019-10-21 04:00:00 8.2 3 Noroeste 6 Norte 0 -- -- 92
2019-10-21 03:00:00 8.3 2 Noroeste 4 Noroeste 0 -- -- 91
2019-10-21 02:00:00 8.7 4 Norte 15 Oeste 0 -- -- 88
2019-10-21 01:00:00 9.5 12 Oeste 21 Oeste 0 -- -- 87
2019-10-21 00:00:00 10.3 5 Oeste 12 Sudoeste 0 -- -- 85
2019-10-20 23:00:00 11.1 5 Oeste 7 Sudoeste 0 -- -- 84
2019-10-20 22:00:00 12 0 Calma 15 Oeste 0 -- -- 79
2019-10-20 21:00:00 13.7 7 Oeste 22 Oeste 0 -- -- 69
2019-10-20 20:00:00 15.1 7 Oeste 19 Oeste 0 -- -- 64
2019-10-20 19:00:00 16.4 4 Sudoeste 9 Sudoeste 0 -- -- 59
2019-10-20 18:00:00 18.5 3 Oeste 12 Oeste 0 -- -- 49
2019-10-20 17:00:00 17.5 4 Noroeste 19 Oeste 0 -- -- 53
2019-10-20 16:00:00 17.5 11 Oeste 23 Oeste 0 -- -- 50
2019-10-20 15:00:00 17.6 15 Oeste 27 Oeste 0 -- -- 52
2019-10-20 14:00:00 17.3 14 Oeste 26 Oeste 0 -- -- 59
2019-10-20 13:00:00 16.9 10 Oeste 24 Oeste 0 -- -- 65
2019-10-20 12:00:00 16.6 16 Oeste 31 Oeste 0 -- -- 64
2019-10-20 11:00:00 16 10 Oeste 20 Oeste 0 -- -- 80
2019-10-20 10:00:00 14.9 5 Sudoeste 14 Oeste 0 -- -- 94
2019-10-20 09:00:00 15 2 Este 12 Oeste 0 -- -- 94
2019-10-20 08:00:00 14.9 4 Oeste 8 Oeste 0 -- -- 95
2019-10-20 07:00:00 15.3 2 Oeste 12 Oeste 0 -- -- 94
2019-10-20 06:00:00 15.6 4 Noroeste 15 Nordeste 0.2 -- -- 94
2019-10-20 05:00:00 15.5 8 Oeste 17 Oeste 0.6 -- -- 93
2019-10-20 04:00:00 16.4 0 Calma 10 Sudeste 0.2 -- -- 88
2019-10-20 03:00:00 16.7 6 Este 16 Este 0.2 -- -- 85
2019-10-20 02:00:00 17.2 6 Sudeste 18 Este 0 -- -- 82
2019-10-20 01:00:00 17.7 10 Este 25 Este 0 -- -- 78
2019-10-20 00:00:00 18.4 12 Este 23 Este 0 -- -- 71
2019-10-19 23:00:00 18.5 11 Este 19 Este 0 -- -- 65
2019-10-19 22:00:00 19.4 11 Este 24 Este 0 -- -- 60
2019-10-19 21:00:00 19.7 13 Este 21 Este 0 -- -- 58
2019-10-19 20:00:00 19.5 7 Este 15 Este 0 -- -- 58
2019-10-19 19:00:00 20.6 9 Este 22 Este 0 -- -- 56
2019-10-19 18:00:00 21.8 12 Este 25 Nordeste 0 -- -- 54
2019-10-19 17:00:00 22.3 10 Este 18 Este 0 -- -- 53
2019-10-19 16:00:00 22.5 6 Nordeste 17 Este 0 -- -- 50
2019-10-19 15:00:00 23.4 8 Este 21 Este 0 -- -- 49
2019-10-19 14:00:00 22.6 4 Noroeste 12 Este 0 -- -- 49
2019-10-19 13:00:00 21.8 4 Norte 12 Este 0 -- -- 52
2019-10-19 12:00:00 19.2 3 Noroeste 7 Nordeste 0 -- -- 71
2019-10-19 11:00:00 16.9 3 Este 6 Este 0 -- -- 85
2019-10-19 10:00:00 14.9 0 Calma 7 Oeste 0 -- -- 94
2019-10-19 09:00:00 13.5 5 Oeste 10 Noroeste 0 -- -- 95
2019-10-19 08:00:00 12.9 3 Noroeste 11 Oeste 0 -- -- 96
2019-10-19 07:00:00 12.6 4 Norte 6 Norte 0 -- -- 95
2019-10-19 06:00:00 12.3 0 Calma 7 Oeste 0 -- -- 95
2019-10-19 05:00:00 12.5 3 Oeste 9 Oeste 0 -- -- 95
2019-10-19 04:00:00 12.3 4 Norte 10 Oeste 0 -- -- 95
2019-10-19 03:00:00 12.6 2 Noroeste 9 Nordeste 0 -- -- 94
2019-10-19 02:00:00 13.5 3 Oeste 4 Sudoeste 0 -- -- 92
2019-10-19 01:00:00 14.3 0 Calma 6 Norte 0 -- -- 90
2019-10-19 00:00:00 14.9 3 Norte 8 Norte 0 -- -- 88
2019-10-18 23:00:00 15.4 4 Oeste 6 Oeste 0 -- -- 89
2019-10-18 22:00:00 16 3 Este 6 Sudeste 0 -- -- 84
2019-10-18 21:00:00 16.8 4 Sudeste 5 Sudeste 0 -- -- 82
2019-10-18 20:00:00 17.6 4 Sudeste 5 Sudeste 0 -- -- 80
2019-10-18 19:00:00 19.1 2 Noroeste 8 Norte 0 -- -- 74
2019-10-18 18:00:00 20.4 4 Noroeste 8 Nordeste 0 -- -- 67
2019-10-18 17:00:00 20.1 2 Norte 6 Norte 0 -- -- 67
2019-10-18 16:00:00 20.9 2 Sudeste 9 Sudeste 0 -- -- 62
2019-10-18 15:00:00 20.8 6 Este 13 Este 0 -- -- 61
2019-10-18 14:00:00 19.6 7 Este 11 Este 0 -- -- 65
2019-10-18 13:00:00 17.9 4 Sur 9 Sur 0 -- -- 72
2019-10-18 12:00:00 16.5 4 Norte 9 Norte 0 -- -- 74
2019-10-18 11:00:00 15 0 Calma 5 Oeste 0 -- -- 77
2019-10-18 10:00:00 12.8 3 Norte 6 Nordeste 0 -- -- 91
2019-10-18 09:00:00 11.8 2 Nordeste 5 Oeste 0 -- -- 93
2019-10-18 08:00:00 11.7 2 Sudeste 9 Oeste 0 -- -- 92
2019-10-18 07:00:00 11.3 0 Calma 7 Noroeste 0 -- -- 92
2019-10-18 06:00:00 11.4 0 Calma 11 Sudoeste 0 -- -- 91
2019-10-18 05:00:00 11.7 2 Sudeste 11 Norte 0 -- -- 88
2019-10-18 04:00:00 11.4 5 Norte 13 Norte 0 -- -- 87
2019-10-18 03:00:00 11 5 Norte 9 Norte 0 -- -- 87
2019-10-18 02:00:00 11.1 4 Norte 11 Noroeste 0 -- -- 85
2019-10-18 01:00:00 11.7 5 Norte 10 Norte 0 -- -- 86
2019-10-18 00:00:00 12.3 3 Norte 8 Norte 0 -- -- 83
2019-10-17 23:00:00 12.7 4 Oeste 6 Oeste 0 -- -- 82
2019-10-17 22:00:00 14.3 3 Noroeste 5 Norte 0 -- -- 79
2019-10-17 21:00:00 15.4 2 Norte 6 Norte 0 -- -- 74
2019-10-17 20:00:00 16.9 0 Calma 3 Nordeste 0 -- -- 67
2019-10-17 19:00:00 20 0 Calma 9 Norte 0 -- -- 56
2019-10-17 18:00:00 21 5 Noroeste 9 Noroeste 0 -- -- 52
2019-10-17 17:00:00 21.1 3 Norte 9 Noroeste 0 -- -- 50
2019-10-17 16:00:00 20.5 3 Noroeste 12 Sudoeste 0 -- -- 49
2019-10-17 15:00:00 19.3 3 Oeste 13 Noroeste 0 -- -- 52
2019-10-17 14:00:00 18.8 3 Norte 12 Nordeste 0 -- -- 54
2019-10-17 13:00:00 16.4 4 Noroeste 13 Oeste 0 -- -- 71
2019-10-17 12:00:00 14.5 7 Oeste 15 Oeste 0 -- -- 77
2019-10-17 11:00:00 13.1 2 Sudoeste 11 Sudoeste 0 -- -- 78
2019-10-17 10:00:00 11.1 2 Noroeste 7 Norte 0 -- -- 84
2019-10-17 09:00:00 8.2 4 Nordeste 5 Norte 0 -- -- 91
2019-10-17 08:00:00 7.7 4 Oeste 12 Nordeste 0 -- -- 90
2019-10-17 07:00:00 8.1 5 Norte 9 Norte 0 -- -- 89
2019-10-17 06:00:00 8.8 2 Norte 8 Noroeste 0 -- -- 87
2019-10-17 05:00:00 8.6 3 Norte 6 Norte 0 -- -- 89
2019-10-17 04:00:00 9.1 4 Norte 9 Nordeste 0 -- -- 86
2019-10-17 03:00:00 9.6 3 Norte 8 Norte 0 -- -- 86
2019-10-17 02:00:00 9.8 6 Nordeste 9 Nordeste 0 -- -- 85
2019-10-17 01:00:00 11.1 3 Oeste 6 Norte 0 -- -- 82
2019-10-17 00:00:00 11.8 3 Norte 10 Norte 0 -- -- 80
2019-10-16 23:00:00 12.5 3 Norte 9 Norte 0 -- -- 79
2019-10-16 22:00:00 13.2 0 Calma 8 Oeste 0 -- -- 79
2019-10-16 21:00:00 15.2 3 Noroeste 8 Sudoeste 0 -- -- 68
2019-10-16 20:00:00 17 2 Nordeste 9 Norte 0 -- -- 59
2019-10-16 19:00:00 19.2 7 Norte 10 Norte 0 -- -- 53
2019-10-16 18:00:00 21 5 Nordeste 12 Noroeste 0 -- -- 44
2019-10-16 17:00:00 21.8 3 Sudoeste 16 Sudoeste 0 -- -- 41
2019-10-16 16:00:00 20.8 4 Oeste 13 Noroeste 0 -- -- 44
2019-10-16 15:00:00 19.9 6 Oeste 19 Sudoeste 0 -- -- 45
2019-10-16 14:00:00 19.5 6 Norte 11 Noroeste 0 -- -- 46
2019-10-16 13:00:00 18.2 3 Noroeste 8 Oeste 0 -- -- 47
2019-10-16 12:00:00 16.5 4 Nordeste 8 Sudeste 0 -- -- 54
2019-10-16 11:00:00 14.2 3 Nordeste 6 Nordeste 0 -- -- 65
2019-10-16 10:00:00 12.2 0 Calma 4 Nordeste 0 -- -- 77
2019-10-16 09:00:00 8.8 0 Calma 4 Nordeste 0 -- -- 90
2019-10-16 08:00:00 8.3 4 Norte 5 Norte 0 -- -- 88
2019-10-16 07:00:00 8.8 0 Calma 3 Este 0 -- -- 90
2019-10-16 06:00:00 8.8 0 Calma 5 Sur 0 -- -- 89
2019-10-16 05:00:00 9.1 0 Calma 10 Este 0 -- -- 85
2019-10-16 04:00:00 9.4 3 Nordeste 9 Norte 0 -- -- 84
2019-10-16 03:00:00 9.3 0 Calma 5 Norte 0 -- -- 84
2019-10-16 02:00:00 9.5 3 Norte 6 Nordeste 0 -- -- 78
2019-10-16 01:00:00 9 4 Norte 5 Nordeste 0 -- -- 80
2019-10-16 00:00:00 9.8 2 Oeste 4 Norte 0 -- -- 80
2019-10-15 23:00:00 10.5 0 Calma 9 Oeste 0 -- -- 76
2019-10-15 22:00:00 11.7 5 Oeste 12 Oeste 0 -- -- 67
2019-10-15 21:00:00 13.2 5 Oeste 15 Oeste 0 -- -- 61
2019-10-15 20:00:00 14.5 5 Oeste 15 Oeste 0 -- -- 57
2019-10-15 19:00:00 16.8 7 Oeste 29 Oeste 0 -- -- 50
2019-10-15 18:00:00 17.7 17 Oeste 33 Oeste 0 -- -- 46
2019-10-15 17:00:00 18 17 Oeste 35 Oeste 0 -- -- 44
2019-10-15 16:00:00 17.9 18 Oeste 36 Noroeste 0 -- -- 46
2019-10-15 15:00:00 17.3 20 Oeste 39 Oeste 0 -- -- 49
2019-10-15 14:00:00 16.3 24 Oeste 44 Oeste 0 -- -- 49
2019-10-15 13:00:00 15.3 22 Oeste 43 Oeste 0 -- -- 53
2019-10-15 12:00:00 13.8 21 Oeste 50 Oeste 0 -- -- 61
2019-10-15 11:00:00 12.9 23 Oeste 40 Oeste 0 -- -- 65
2019-10-15 10:00:00 11.7 22 Oeste 39 Oeste 0 -- -- 69
2019-10-15 09:00:00 10.2 18 Oeste 29 Oeste 0 -- -- 76
2019-10-15 08:00:00 9.8 14 Oeste 28 Oeste 0 -- -- 78
2019-10-15 07:00:00 10.4 15 Oeste 39 Oeste 0 -- -- 79
2019-10-15 06:00:00 11.2 22 Oeste 38 Oeste 0 -- -- 77
2019-10-15 05:00:00 11.8 13 Oeste 23 Sudoeste 0 -- -- 77
2019-10-15 04:00:00 12.1 11 Oeste 25 Oeste 0 -- -- 76
2019-10-15 03:00:00 11.8 13 Oeste 26 Oeste 0 -- -- 77
2019-10-15 02:00:00 12.8 11 Oeste 21 Sudoeste 0 -- -- 76
2019-10-15 01:00:00 12.9 10 Oeste 17 Oeste 0 -- -- 78
2019-10-15 00:00:00 13.5 11 Oeste 51 Oeste 0 -- -- 76
2019-10-14 23:00:00 14.1 18 Oeste 36 Oeste 0 -- -- 76
2019-10-14 22:00:00 16 7 Oeste 26 Oeste 0 -- -- 95
2019-10-14 21:00:00 16.2 3 Sur 11 Nordeste 0 -- -- 95
2019-10-14 20:00:00 17.1 5 Nordeste 41 Sudeste 0.2 -- -- 95
2019-10-14 19:00:00 16.6 19 Oeste 40 Sudoeste 14.2 -- -- 95
2019-10-14 18:00:00 20.4 19 Este 38 Este 0 -- -- 79
2019-10-14 17:00:00 21.8 20 Este 43 Este 0 -- -- 67
2019-10-14 16:00:00 21.4 22 Este 40 Este 0 -- -- 77
2019-10-14 15:00:00 19.2 19 Este 33 Este 0.8 -- -- 85
2019-10-14 14:00:00 19.7 15 Este 27 Este 0 -- -- 82
2019-10-14 13:00:00 20.3 11 Este 21 Este 0 -- -- 79
2019-10-14 12:00:00 19.7 8 Sudeste 33 Este 0 -- -- 80
2019-10-14 11:00:00 19.3 20 Este 45 Este 0 -- -- 79
2019-10-14 10:00:00 19.4 22 Este 39 Este 0 -- -- 79
2019-10-14 09:00:00 18.3 23 Este 40 Este 0 -- -- 82
2019-10-14 08:00:00 17.9 17 Este 35 Este 0 -- -- 82
2019-10-14 07:00:00 17.8 22 Este 41 Este 0 -- -- 82
2019-10-14 06:00:00 17.7 18 Este 36 Este 0 -- -- 83
2019-10-14 05:00:00 17.8 14 Este 29 Este 0 -- -- 83
2019-10-14 04:00:00 17.8 17 Este 32 Nordeste 0 -- -- 84
2019-10-14 03:00:00 18 15 Este 33 Este 0 -- -- 84
2019-10-14 02:00:00 18.6 17 Este 28 Este 0 -- -- 82
2019-10-14 01:00:00 18.9 15 Este 33 Nordeste 0 -- -- 81
2019-10-14 00:00:00 18.9 17 Este 37 Este 0 -- -- 81